sensor_id;sensor_type;location;lat;lon;timestamp;P1;durP1;ratioP1;P2;durP2;ratioP2
56824;SDS011;42705;50.326;18.772;2024-03-25T00:01:40;8.10;;;4.10;;
56824;SDS011;42705;50.326;18.772;2024-03-25T00:07:02;8.30;;;4.60;;
56824;SDS011;42705;50.326;18.772;2024-03-25T00:12:27;8.40;;;4.20;;
56824;SDS011;42705;50.326;18.772;2024-03-25T00:17:49;8.50;;;4.70;;
56824;SDS011;42705;50.326;18.772;2024-03-25T00:23:11;8.70;;;4.20;;
56824;SDS011;42705;50.326;18.772;2024-03-25T00:28:33;5.70;;;3.80;;
56824;SDS011;42705;50.326;18.772;2024-03-25T00:33:55;8.30;;;4.40;;
56824;SDS011;42705;50.326;18.772;2024-03-25T00:39:17;6.10;;;4.50;;
56824;SDS011;42705;50.326;18.772;2024-03-25T00:44:39;9.20;;;4.90;;
56824;SDS011;42705;50.326;18.772;2024-03-25T00:50:01;8.30;;;5.20;;
56824;SDS011;42705;50.326;18.772;2024-03-25T00:55:23;6.60;;;4.50;;
56824;SDS011;42705;50.326;18.772;2024-03-25T01:00:45;8.30;;;5.60;;
56824;SDS011;42705;50.326;18.772;2024-03-25T01:06:07;9.00;;;5.50;;
56824;SDS011;42705;50.326;18.772;2024-03-25T01:11:29;8.60;;;5.80;;
56824;SDS011;42705;50.326;18.772;2024-03-25T01:16:50;10.40;;;5.90;;
56824;SDS011;42705;50.326;18.772;2024-03-25T01:22:12;8.70;;;5.30;;
56824;SDS011;42705;50.326;18.772;2024-03-25T01:27:34;9.10;;;4.90;;
56824;SDS011;42705;50.326;18.772;2024-03-25T01:32:56;8.90;;;5.00;;
56824;SDS011;42705;50.326;18.772;2024-03-25T01:38:17;10.50;;;4.90;;
56824;SDS011;42705;50.326;18.772;2024-03-25T01:43:39;8.10;;;4.50;;
56824;SDS011;42705;50.326;18.772;2024-03-25T01:49:01;5.60;;;3.90;;
56824;SDS011;42705;50.326;18.772;2024-03-25T01:54:23;12.10;;;5.90;;
56824;SDS011;42705;50.326;18.772;2024-03-25T01:59:45;7.40;;;5.10;;
56824;SDS011;42705;50.326;18.772;2024-03-25T02:05:07;9.80;;;5.30;;
56824;SDS011;42705;50.326;18.772;2024-03-25T02:10:31;8.40;;;5.80;;
56824;SDS011;42705;50.326;18.772;2024-03-25T02:15:54;9.10;;;6.90;;
56824;SDS011;42705;50.326;18.772;2024-03-25T02:21:16;9.50;;;6.80;;
56824;SDS011;42705;50.326;18.772;2024-03-25T02:26:38;9.90;;;7.50;;
56824;SDS011;42705;50.326;18.772;2024-03-25T02:32:01;10.40;;;6.50;;
56824;SDS011;42705;50.326;18.772;2024-03-25T02:37:24;11.20;;;6.30;;
56824;SDS011;42705;50.326;18.772;2024-03-25T02:42:47;7.30;;;5.70;;
56824;SDS011;42705;50.326;18.772;2024-03-25T02:48:09;9.00;;;6.20;;
56824;SDS011;42705;50.326;18.772;2024-03-25T02:53:31;9.60;;;6.10;;
56824;SDS011;42705;50.326;18.772;2024-03-25T03:04:15;9.20;;;6.10;;
56824;SDS011;42705;50.326;18.772;2024-03-25T03:09:37;10.50;;;6.40;;
56824;SDS011;42705;50.326;18.772;2024-03-25T03:14:59;9.90;;;5.90;;
56824;SDS011;42705;50.326;18.772;2024-03-25T03:20:21;8.90;;;6.00;;
56824;SDS011;42705;50.326;18.772;2024-03-25T03:25:43;9.10;;;5.90;;
56824;SDS011;42705;50.326;18.772;2024-03-25T03:31:04;9.80;;;6.30;;
56824;SDS011;42705;50.326;18.772;2024-03-25T03:36:27;6.30;;;4.80;;
56824;SDS011;42705;50.326;18.772;2024-03-25T03:41:48;7.40;;;5.40;;
56824;SDS011;42705;50.326;18.772;2024-03-25T03:47:11;9.00;;;6.60;;
56824;SDS011;42705;50.326;18.772;2024-03-25T03:52:33;8.60;;;5.70;;
56824;SDS011;42705;50.326;18.772;2024-03-25T03:57:55;9.10;;;5.30;;
56824;SDS011;42705;50.326;18.772;2024-03-25T04:03:17;8.80;;;5.50;;
56824;SDS011;42705;50.326;18.772;2024-03-25T04:08:39;8.30;;;5.20;;
56824;SDS011;42705;50.326;18.772;2024-03-25T04:14:01;9.50;;;5.00;;
56824;SDS011;42705;50.326;18.772;2024-03-25T04:19:24;6.40;;;4.10;;
56824;SDS011;42705;50.326;18.772;2024-03-25T04:24:46;7.60;;;5.00;;
56824;SDS011;42705;50.326;18.772;2024-03-25T04:30:09;7.00;;;4.10;;
56824;SDS011;42705;50.326;18.772;2024-03-25T04:35:32;7.30;;;4.10;;
56824;SDS011;42705;50.326;18.772;2024-03-25T04:40:54;7.10;;;4.60;;
56824;SDS011;42705;50.326;18.772;2024-03-25T04:46:16;6.60;;;4.20;;
56824;SDS011;42705;50.326;18.772;2024-03-25T04:51:37;8.10;;;5.20;;
56824;SDS011;42705;50.326;18.772;2024-03-25T04:56:59;8.60;;;5.20;;
56824;SDS011;42705;50.326;18.772;2024-03-25T05:02:24;8.70;;;5.30;;
56824;SDS011;42705;50.326;18.772;2024-03-25T05:07:45;10.20;;;6.30;;
56824;SDS011;42705;50.326;18.772;2024-03-25T05:13:09;12.10;;;7.60;;
56824;SDS011;42705;50.326;18.772;2024-03-25T05:18:31;11.90;;;7.30;;
56824;SDS011;42705;50.326;18.772;2024-03-25T05:23:53;11.70;;;7.70;;
56824;SDS011;42705;50.326;18.772;2024-03-25T05:29:15;11.30;;;7.80;;
56824;SDS011;42705;50.326;18.772;2024-03-25T05:34:36;11.70;;;7.70;;
56824;SDS011;42705;50.326;18.772;2024-03-25T05:39:58;13.20;;;7.30;;
56824;SDS011;42705;50.326;18.772;2024-03-25T05:45:20;14.10;;;8.40;;
56824;SDS011;42705;50.326;18.772;2024-03-25T05:50:41;16.30;;;9.00;;
56824;SDS011;42705;50.326;18.772;2024-03-25T05:56:03;13.30;;;8.40;;
56824;SDS011;42705;50.326;18.772;2024-03-25T06:01:26;12.70;;;8.50;;
56824;SDS011;42705;50.326;18.772;2024-03-25T06:06:49;11.60;;;7.90;;
56824;SDS011;42705;50.326;18.772;2024-03-25T06:12:10;12.30;;;8.20;;
56824;SDS011;42705;50.326;18.772;2024-03-25T06:17:34;13.40;;;8.20;;
56824;SDS011;42705;50.326;18.772;2024-03-25T06:22:56;11.10;;;7.90;;
56824;SDS011;42705;50.326;18.772;2024-03-25T06:28:17;7.20;;;5.30;;
56824;SDS011;42705;50.326;18.772;2024-03-25T06:39:21;9.70;;;6.20;;
56824;SDS011;42705;50.326;18.772;2024-03-25T06:44:43;7.30;;;5.40;;
56824;SDS011;42705;50.326;18.772;2024-03-25T06:50:05;8.30;;;5.00;;
56824;SDS011;42705;50.326;18.772;2024-03-25T06:55:27;8.30;;;4.60;;
56824;SDS011;42705;50.326;18.772;2024-03-25T07:00:49;7.70;;;4.60;;
56824;SDS011;42705;50.326;18.772;2024-03-25T07:06:12;7.00;;;4.60;;
56824;SDS011;42705;50.326;18.772;2024-03-25T07:11:33;6.00;;;4.30;;
56824;SDS011;42705;50.326;18.772;2024-03-25T07:16:55;6.30;;;4.00;;
56824;SDS011;42705;50.326;18.772;2024-03-25T07:22:17;5.80;;;4.20;;
56824;SDS011;42705;50.326;18.772;2024-03-25T07:27:39;5.50;;;3.40;;
56824;SDS011;42705;50.326;18.772;2024-03-25T07:33:00;2.70;;;2.30;;
56824;SDS011;42705;50.326;18.772;2024-03-25T07:38:22;4.60;;;2.70;;
56824;SDS011;42705;50.326;18.772;2024-03-25T07:43:44;3.90;;;2.90;;
56824;SDS011;42705;50.326;18.772;2024-03-25T07:49:05;4.00;;;2.70;;
56824;SDS011;42705;50.326;18.772;2024-03-25T07:54:29;4.40;;;3.80;;
56824;SDS011;42705;50.326;18.772;2024-03-25T07:59:51;5.20;;;3.70;;
56824;SDS011;42705;50.326;18.772;2024-03-25T08:05:13;4.50;;;3.50;;
56824;SDS011;42705;50.326;18.772;2024-03-25T08:10:34;4.40;;;3.20;;
56824;SDS011;42705;50.326;18.772;2024-03-25T08:15:59;6.30;;;4.00;;
56824;SDS011;42705;50.326;18.772;2024-03-25T08:21:20;4.40;;;3.80;;
56824;SDS011;42705;50.326;18.772;2024-03-25T08:26:44;5.30;;;3.80;;
56824;SDS011;42705;50.326;18.772;2024-03-25T08:32:06;9.90;;;4.10;;
56824;SDS011;42705;50.326;18.772;2024-03-25T08:37:27;5.90;;;4.10;;
56824;SDS011;42705;50.326;18.772;2024-03-25T08:42:49;6.40;;;3.10;;
56824;SDS011;42705;50.326;18.772;2024-03-25T08:48:11;4.20;;;3.10;;
56824;SDS011;42705;50.326;18.772;2024-03-25T08:53:35;2.90;;;1.70;;
56824;SDS011;42705;50.326;18.772;2024-03-25T08:58:57;3.00;;;2.20;;
56824;SDS011;42705;50.326;18.772;2024-03-25T09:04:19;2.10;;;1.90;;
56824;SDS011;42705;50.326;18.772;2024-03-25T09:09:41;3.40;;;2.50;;
56824;SDS011;42705;50.326;18.772;2024-03-25T09:15:22;2.90;;;2.20;;
56824;SDS011;42705;50.326;18.772;2024-03-25T09:20:43;5.10;;;2.30;;
56824;SDS011;42705;50.326;18.772;2024-03-25T09:26:05;4.60;;;2.20;;
56824;SDS011;42705;50.326;18.772;2024-03-25T09:31:27;5.00;;;2.60;;
56824;SDS011;42705;50.326;18.772;2024-03-25T09:36:49;1.90;;;1.70;;
56824;SDS011;42705;50.326;18.772;2024-03-25T09:42:12;2.20;;;2.00;;
56824;SDS011;42705;50.326;18.772;2024-03-25T09:47:36;2.10;;;1.90;;
56824;SDS011;42705;50.326;18.772;2024-03-25T09:53:00;1.90;;;1.80;;
56824;SDS011;42705;50.326;18.772;2024-03-25T09:58:22;2.20;;;1.60;;
56824;SDS011;42705;50.326;18.772;2024-03-25T10:03:46;1.80;;;1.70;;
56824;SDS011;42705;50.326;18.772;2024-03-25T10:09:08;2.40;;;1.80;;
56824;SDS011;42705;50.326;18.772;2024-03-25T10:14:30;2.80;;;1.70;;
56824;SDS011;42705;50.326;18.772;2024-03-25T10:19:56;2.00;;;1.60;;
56824;SDS011;42705;50.326;18.772;2024-03-25T10:25:28;3.10;;;1.50;;
56824;SDS011;42705;50.326;18.772;2024-03-25T10:30:51;0.50;;;0.50;;
56824;SDS011;42705;50.326;18.772;2024-03-25T10:36:13;0.80;;;0.80;;
56824;SDS011;42705;50.326;18.772;2024-03-25T10:41:38;1.00;;;0.90;;
56824;SDS011;42705;50.326;18.772;2024-03-25T10:47:01;0.90;;;0.60;;
56824;SDS011;42705;50.326;18.772;2024-03-25T10:52:26;0.70;;;0.30;;
56824;SDS011;42705;50.326;18.772;2024-03-25T10:57:50;0.90;;;0.60;;
56824;SDS011;42705;50.326;18.772;2024-03-25T11:03:13;1.00;;;0.50;;
56824;SDS011;42705;50.326;18.772;2024-03-25T11:08:37;0.80;;;0.60;;
56824;SDS011;42705;50.326;18.772;2024-03-25T11:14:03;1.00;;;0.80;;
56824;SDS011;42705;50.326;18.772;2024-03-25T11:19:29;0.70;;;0.70;;
56824;SDS011;42705;50.326;18.772;2024-03-25T11:24:51;1.00;;;0.80;;
56824;SDS011;42705;50.326;18.772;2024-03-25T11:30:14;1.90;;;1.10;;
56824;SDS011;42705;50.326;18.772;2024-03-25T11:35:37;2.50;;;1.10;;
56824;SDS011;42705;50.326;18.772;2024-03-25T11:41:00;1.60;;;1.10;;
56824;SDS011;42705;50.326;18.772;2024-03-25T11:46:24;0.70;;;0.60;;
56824;SDS011;42705;50.326;18.772;2024-03-25T11:51:47;0.90;;;0.60;;
56824;SDS011;42705;50.326;18.772;2024-03-25T11:57:09;0.50;;;0.50;;
56824;SDS011;42705;50.326;18.772;2024-03-25T12:02:31;3.80;;;0.60;;
56824;SDS011;42705;50.326;18.772;2024-03-25T12:07:53;1.40;;;0.80;;
56824;SDS011;42705;50.326;18.772;2024-03-25T12:13:15;1.30;;;1.20;;
56824;SDS011;42705;50.326;18.772;2024-03-25T12:18:39;1.00;;;0.90;;
56824;SDS011;42705;50.326;18.772;2024-03-25T12:24:03;1.30;;;1.10;;
56824;SDS011;42705;50.326;18.772;2024-03-25T12:29:25;1.40;;;0.70;;
56824;SDS011;42705;50.326;18.772;2024-03-25T12:34:47;1.70;;;1.30;;
56824;SDS011;42705;50.326;18.772;2024-03-25T12:40:10;2.50;;;1.40;;
56824;SDS011;42705;50.326;18.772;2024-03-25T12:45:32;1.30;;;1.00;;
56824;SDS011;42705;50.326;18.772;2024-03-25T12:50:54;1.60;;;0.60;;
56824;SDS011;42705;50.326;18.772;2024-03-25T12:56:16;1.50;;;0.60;;
56824;SDS011;42705;50.326;18.772;2024-03-25T13:01:38;1.10;;;0.80;;
56824;SDS011;42705;50.326;18.772;2024-03-25T13:07:00;1.10;;;0.80;;
56824;SDS011;42705;50.326;18.772;2024-03-25T13:12:21;1.20;;;1.20;;
56824;SDS011;42705;50.326;18.772;2024-03-25T13:17:43;1.50;;;1.00;;
56824;SDS011;42705;50.326;18.772;2024-03-25T13:23:05;1.40;;;1.20;;
56824;SDS011;42705;50.326;18.772;2024-03-25T13:28:27;1.60;;;1.20;;
56824;SDS011;42705;50.326;18.772;2024-03-25T13:33:50;1.20;;;1.10;;
56824;SDS011;42705;50.326;18.772;2024-03-25T13:39:13;1.40;;;1.30;;
56824;SDS011;42705;50.326;18.772;2024-03-25T13:44:34;3.40;;;1.80;;
56824;SDS011;42705;50.326;18.772;2024-03-25T13:50:00;3.40;;;2.50;;
56824;SDS011;42705;50.326;18.772;2024-03-25T13:55:24;2.60;;;2.20;;
56824;SDS011;42705;50.326;18.772;2024-03-25T14:00:47;2.10;;;1.90;;
56824;SDS011;42705;50.326;18.772;2024-03-25T14:06:08;2.10;;;1.90;;
56824;SDS011;42705;50.326;18.772;2024-03-25T14:11:30;4.00;;;2.70;;
56824;SDS011;42705;50.326;18.772;2024-03-25T14:16:52;3.20;;;2.60;;
56824;SDS011;42705;50.326;18.772;2024-03-25T14:22:14;3.80;;;2.50;;
56824;SDS011;42705;50.326;18.772;2024-03-25T14:32:59;2.00;;;1.80;;
56824;SDS011;42705;50.326;18.772;2024-03-25T14:38:20;1.60;;;1.50;;
56824;SDS011;42705;50.326;18.772;2024-03-25T14:43:42;3.10;;;1.30;;
56824;SDS011;42705;50.326;18.772;2024-03-25T14:49:04;1.30;;;1.00;;
56824;SDS011;42705;50.326;18.772;2024-03-25T14:54:35;1.90;;;1.30;;
56824;SDS011;42705;50.326;18.772;2024-03-25T14:59:58;3.00;;;2.20;;
56824;SDS011;42705;50.326;18.772;2024-03-25T15:05:20;3.30;;;2.80;;
56824;SDS011;42705;50.326;18.772;2024-03-25T15:10:42;1.90;;;1.70;;
56824;SDS011;42705;50.326;18.772;2024-03-25T15:16:08;2.80;;;2.30;;
56824;SDS011;42705;50.326;18.772;2024-03-25T15:21:30;3.10;;;2.00;;
56824;SDS011;42705;50.326;18.772;2024-03-25T15:26:52;2.70;;;2.00;;
56824;SDS011;42705;50.326;18.772;2024-03-25T15:32:14;1.80;;;1.50;;
56824;SDS011;42705;50.326;18.772;2024-03-25T15:37:37;1.20;;;1.10;;
56824;SDS011;42705;50.326;18.772;2024-03-25T15:42:59;1.60;;;1.10;;
56824;SDS011;42705;50.326;18.772;2024-03-25T15:48:23;2.40;;;1.30;;
56824;SDS011;42705;50.326;18.772;2024-03-25T15:53:45;2.20;;;1.70;;
56824;SDS011;42705;50.326;18.772;2024-03-25T15:59:07;2.50;;;2.20;;
56824;SDS011;42705;50.326;18.772;2024-03-25T16:04:28;2.20;;;2.00;;
56824;SDS011;42705;50.326;18.772;2024-03-25T16:09:51;2.80;;;2.20;;
56824;SDS011;42705;50.326;18.772;2024-03-25T16:15:13;3.60;;;2.60;;
56824;SDS011;42705;50.326;18.772;2024-03-25T16:20:34;3.90;;;2.30;;
56824;SDS011;42705;50.326;18.772;2024-03-25T16:25:56;4.50;;;2.70;;
56824;SDS011;42705;50.326;18.772;2024-03-25T16:31:18;3.40;;;2.80;;
56824;SDS011;42705;50.326;18.772;2024-03-25T16:36:40;4.90;;;2.90;;
56824;SDS011;42705;50.326;18.772;2024-03-25T16:42:02;4.30;;;2.90;;
56824;SDS011;42705;50.326;18.772;2024-03-25T16:47:24;4.20;;;3.20;;
56824;SDS011;42705;50.326;18.772;2024-03-25T16:52:46;4.70;;;3.10;;
56824;SDS011;42705;50.326;18.772;2024-03-25T16:58:08;4.70;;;2.90;;
56824;SDS011;42705;50.326;18.772;2024-03-25T17:03:30;5.20;;;3.20;;
56824;SDS011;42705;50.326;18.772;2024-03-25T17:08:52;5.70;;;3.00;;
56824;SDS011;42705;50.326;18.772;2024-03-25T17:14:14;7.70;;;4.20;;
56824;SDS011;42705;50.326;18.772;2024-03-25T17:19:36;7.60;;;3.80;;
56824;SDS011;42705;50.326;18.772;2024-03-25T17:24:58;6.30;;;4.10;;
56824;SDS011;42705;50.326;18.772;2024-03-25T17:30:22;9.10;;;4.90;;
56824;SDS011;42705;50.326;18.772;2024-03-25T17:35:45;8.80;;;5.80;;
56824;SDS011;42705;50.326;18.772;2024-03-25T17:41:07;10.50;;;5.90;;
56824;SDS011;42705;50.326;18.772;2024-03-25T17:46:30;9.60;;;5.90;;
56824;SDS011;42705;50.326;18.772;2024-03-25T17:51:51;10.30;;;5.90;;
56824;SDS011;42705;50.326;18.772;2024-03-25T17:57:17;12.80;;;5.90;;
56824;SDS011;42705;50.326;18.772;2024-03-25T18:02:39;8.00;;;5.10;;
56824;SDS011;42705;50.326;18.772;2024-03-25T18:08:02;13.20;;;5.80;;
56824;SDS011;42705;50.326;18.772;2024-03-25T18:13:25;9.50;;;5.00;;
56824;SDS011;42705;50.326;18.772;2024-03-25T18:18:47;9.20;;;6.00;;
56824;SDS011;42705;50.326;18.772;2024-03-25T18:24:08;10.30;;;5.90;;
56824;SDS011;42705;50.326;18.772;2024-03-25T18:29:30;12.10;;;6.40;;
56824;SDS011;42705;50.326;18.772;2024-03-25T18:34:52;13.40;;;7.00;;
56824;SDS011;42705;50.326;18.772;2024-03-25T18:40:14;15.30;;;8.40;;
56824;SDS011;42705;50.326;18.772;2024-03-25T18:45:36;19.10;;;9.60;;
56824;SDS011;42705;50.326;18.772;2024-03-25T18:50:58;24.00;;;10.20;;
56824;SDS011;42705;50.326;18.772;2024-03-25T18:56:20;16.00;;;9.20;;
56824;SDS011;42705;50.326;18.772;2024-03-25T19:01:42;18.50;;;9.80;;
56824;SDS011;42705;50.326;18.772;2024-03-25T19:07:04;24.50;;;13.40;;
56824;SDS011;42705;50.326;18.772;2024-03-25T19:12:26;18.70;;;11.40;;
56824;SDS011;42705;50.326;18.772;2024-03-25T19:17:47;20.70;;;10.40;;
56824;SDS011;42705;50.326;18.772;2024-03-25T19:23:09;21.30;;;10.20;;
56824;SDS011;42705;50.326;18.772;2024-03-25T19:28:31;16.80;;;9.00;;
56824;SDS011;42705;50.326;18.772;2024-03-25T19:33:53;15.70;;;8.40;;
56824;SDS011;42705;50.326;18.772;2024-03-25T19:39:15;17.20;;;9.20;;
56824;SDS011;42705;50.326;18.772;2024-03-25T19:44:37;19.70;;;10.70;;
56824;SDS011;42705;50.326;18.772;2024-03-25T19:49:59;19.60;;;11.50;;
56824;SDS011;42705;50.326;18.772;2024-03-25T19:55:20;17.10;;;9.90;;
56824;SDS011;42705;50.326;18.772;2024-03-25T20:00:42;16.20;;;9.60;;
56824;SDS011;42705;50.326;18.772;2024-03-25T20:06:04;19.00;;;9.40;;
56824;SDS011;42705;50.326;18.772;2024-03-25T20:16:49;16.70;;;10.50;;
56824;SDS011;42705;50.326;18.772;2024-03-25T20:22:10;17.40;;;10.80;;
56824;SDS011;42705;50.326;18.772;2024-03-25T20:27:32;26.10;;;14.10;;
56824;SDS011;42705;50.326;18.772;2024-03-25T20:32:54;88.90;;;43.60;;
56824;SDS011;42705;50.326;18.772;2024-03-25T20:38:16;50.30;;;26.80;;
56824;SDS011;42705;50.326;18.772;2024-03-25T20:43:39;56.50;;;30.00;;
56824;SDS011;42705;50.326;18.772;2024-03-25T20:49:01;51.40;;;26.50;;
56824;SDS011;42705;50.326;18.772;2024-03-25T20:54:22;92.80;;;45.50;;
56824;SDS011;42705;50.326;18.772;2024-03-25T20:59:46;94.10;;;42.60;;
56824;SDS011;42705;50.326;18.772;2024-03-25T21:05:08;87.90;;;36.90;;
56824;SDS011;42705;50.326;18.772;2024-03-25T21:10:32;82.90;;;35.50;;
56824;SDS011;42705;50.326;18.772;2024-03-25T21:15:54;57.30;;;26.10;;
56824;SDS011;42705;50.326;18.772;2024-03-25T21:21:16;54.20;;;25.70;;
56824;SDS011;42705;50.326;18.772;2024-03-25T21:26:38;61.50;;;31.00;;
56824;SDS011;42705;50.326;18.772;2024-03-25T21:32:00;60.20;;;30.00;;
56824;SDS011;42705;50.326;18.772;2024-03-25T21:37:22;84.60;;;37.00;;
56824;SDS011;42705;50.326;18.772;2024-03-25T21:42:43;91.60;;;40.50;;
56824;SDS011;42705;50.326;18.772;2024-03-25T21:48:06;81.30;;;37.20;;
56824;SDS011;42705;50.326;18.772;2024-03-25T21:53:28;66.20;;;32.20;;
56824;SDS011;42705;50.326;18.772;2024-03-25T21:58:50;67.50;;;30.70;;
56824;SDS011;42705;50.326;18.772;2024-03-25T22:04:11;64.70;;;28.50;;
56824;SDS011;42705;50.326;18.772;2024-03-25T22:09:33;55.30;;;27.00;;
56824;SDS011;42705;50.326;18.772;2024-03-25T22:14:56;62.90;;;32.00;;
56824;SDS011;42705;50.326;18.772;2024-03-25T22:20:19;48.90;;;23.50;;
56824;SDS011;42705;50.326;18.772;2024-03-25T22:25:40;44.60;;;22.30;;
56824;SDS011;42705;50.326;18.772;2024-03-25T22:31:02;63.10;;;29.60;;
56824;SDS011;42705;50.326;18.772;2024-03-25T22:36:25;28.70;;;15.00;;
56824;SDS011;42705;50.326;18.772;2024-03-25T22:41:47;24.20;;;14.40;;
56824;SDS011;42705;50.326;18.772;2024-03-25T22:47:08;30.00;;;16.40;;
56824;SDS011;42705;50.326;18.772;2024-03-25T22:52:31;29.90;;;16.10;;
56824;SDS011;42705;50.326;18.772;2024-03-25T22:57:53;20.20;;;9.60;;
56824;SDS011;42705;50.326;18.772;2024-03-25T23:03:15;30.60;;;16.20;;
56824;SDS011;42705;50.326;18.772;2024-03-25T23:08:36;35.30;;;17.80;;
56824;SDS011;42705;50.326;18.772;2024-03-25T23:13:58;36.60;;;18.10;;
56824;SDS011;42705;50.326;18.772;2024-03-25T23:19:20;52.60;;;24.10;;
56824;SDS011;42705;50.326;18.772;2024-03-25T23:24:42;54.90;;;27.10;;
56824;SDS011;42705;50.326;18.772;2024-03-25T23:30:05;57.70;;;27.20;;
56824;SDS011;42705;50.326;18.772;2024-03-25T23:35:30;84.40;;;35.80;;
56824;SDS011;42705;50.326;18.772;2024-03-25T23:40:52;79.00;;;36.10;;
56824;SDS011;42705;50.326;18.772;2024-03-25T23:46:14;83.90;;;36.80;;
56824;SDS011;42705;50.326;18.772;2024-03-25T23:51:36;70.20;;;34.30;;
56824;SDS011;42705;50.326;18.772;2024-03-25T23:57:04;67.10;;;33.00;;
